createdAt,value
2023-01-13T00:01:30.290Z,1.08
2023-01-13T00:03:58.305Z,1.10
2023-01-13T00:06:26.464Z,1.00
2023-01-13T00:08:54.933Z,1.10
2023-01-13T00:11:26.350Z,0.70
2023-01-13T00:13:54.555Z,0.70
2023-01-13T00:16:24.954Z,0.80
2023-01-13T00:18:52.727Z,0.80
2023-01-13T00:21:24.037Z,0.90
2023-01-13T00:23:54.533Z,0.70
2023-01-13T00:26:30.629Z,0.85
2023-01-13T00:29:00.421Z,0.60
2023-01-13T00:31:30.350Z,0.60
2023-01-13T00:34:00.526Z,0.60
2023-01-13T00:36:29.335Z,0.52
2023-01-13T00:38:57.483Z,0.50
2023-01-13T00:41:26.772Z,0.60
2023-01-13T00:43:54.642Z,0.82
2023-01-13T00:46:23.239Z,0.52
2023-01-13T00:48:51.939Z,1.05
2023-01-13T00:51:21.754Z,0.52
2023-01-13T00:53:51.779Z,0.75
2023-01-13T00:56:39.682Z,0.40
2023-01-13T00:59:12.117Z,0.43
2023-01-13T01:01:41.318Z,0.40
2023-01-13T01:04:09.264Z,0.40
2023-01-13T01:06:37.260Z,0.30
2023-01-13T01:09:06.322Z,0.40
2023-01-13T01:11:34.926Z,0.43
2023-01-13T01:14:04.408Z,0.52
2023-01-13T01:16:33.984Z,0.32
2023-01-13T01:19:04.259Z,0.30
2023-01-13T01:21:32.617Z,0.30
2023-01-13T01:24:05.090Z,0.40
2023-01-13T01:26:33.254Z,0.30
2023-01-13T01:29:02.513Z,0.40
2023-01-13T01:31:33.065Z,0.40
2023-01-13T01:34:02.076Z,0.40
2023-01-13T01:36:30.631Z,0.30
2023-01-13T01:38:59.722Z,0.40
2023-01-13T01:41:32.841Z,0.30
2023-01-13T01:44:50.667Z,0.30
2023-01-13T01:47:19.855Z,0.30
2023-01-13T01:49:48.651Z,0.30
2023-01-13T01:52:27.030Z,0.38
2023-01-13T01:55:08.649Z,0.30
2023-01-13T01:57:37.964Z,0.30
2023-01-13T02:00:06.776Z,0.32
2023-01-13T02:02:41.375Z,0.40
2023-01-13T02:05:09.822Z,0.30
2023-01-13T02:07:39.586Z,0.30
2023-01-13T02:10:11.447Z,0.40
2023-01-13T02:12:42.988Z,0.38
2023-01-13T02:15:48.914Z,0.28
2023-01-13T02:18:34.460Z,0.30
2023-01-13T02:21:28.869Z,0.40
2023-01-13T02:24:55.108Z,0.40
2023-01-13T02:27:54.251Z,0.30
2023-01-13T02:31:26.156Z,0.30
2023-01-13T02:34:12.086Z,0.60
2023-01-13T02:36:57.758Z,0.32
2023-01-13T02:39:34.318Z,0.40
2023-01-13T02:42:30.648Z,0.30
2023-01-13T02:45:16.751Z,0.38
2023-01-13T02:47:48.173Z,0.40
2023-01-13T02:50:20.045Z,0.30
2023-01-13T02:52:54.605Z,0.30
2023-01-13T02:55:39.315Z,0.30
2023-01-13T02:58:11.020Z,0.35
2023-01-13T03:00:39.635Z,0.30
2023-01-13T03:03:07.058Z,0.40
2023-01-13T03:05:34.961Z,0.25
2023-01-13T03:08:27.799Z,0.30
2023-01-13T03:11:09.935Z,0.30
2023-01-13T03:14:07.076Z,0.35
2023-01-13T03:16:52.122Z,0.40
2023-01-13T03:19:55.901Z,0.30
2023-01-13T03:22:37.420Z,0.30
2023-01-13T03:25:46.099Z,0.35
2023-01-13T03:28:41.592Z,0.30
2023-01-13T03:31:18.049Z,0.30
2023-01-13T03:34:02.590Z,0.40
2023-01-13T03:36:33.233Z,0.30
2023-01-13T03:39:10.662Z,0.40
2023-01-13T03:41:49.167Z,0.40
2023-01-13T03:44:23.209Z,0.30
2023-01-13T03:47:21.256Z,0.28
2023-01-13T03:49:59.288Z,0.40
2023-01-13T03:52:42.666Z,0.30
2023-01-13T03:55:23.670Z,0.30
2023-01-13T03:58:07.028Z,0.60
2023-01-13T04:01:06.194Z,0.35
2023-01-13T04:03:44.240Z,0.50
2023-01-13T04:06:25.934Z,0.40
2023-01-13T04:09:43.704Z,0.38
2023-01-13T04:12:50.725Z,0.30
2023-01-13T04:15:22.520Z,0.30
2023-01-13T04:17:51.862Z,0.40
2023-01-13T04:20:19.619Z,0.50
2023-01-13T04:22:47.818Z,0.30
2023-01-13T04:25:15.458Z,0.30
2023-01-13T04:27:42.962Z,0.40
2023-01-13T04:30:11.551Z,0.30
2023-01-13T04:32:39.178Z,0.30
2023-01-13T04:35:08.680Z,0.30
2023-01-13T04:37:36.318Z,0.40
2023-01-13T04:40:04.408Z,0.30
2023-01-13T04:42:31.724Z,0.40
2023-01-13T04:44:59.120Z,0.47
2023-01-13T04:47:26.703Z,0.45
2023-01-13T04:49:54.479Z,0.60
2023-01-13T04:52:21.847Z,0.50
2023-01-13T04:54:49.399Z,0.47
2023-01-13T04:57:16.826Z,0.60
2023-01-13T04:59:44.273Z,0.50
2023-01-13T05:02:15.260Z,0.40
2023-01-13T05:04:42.905Z,0.50
2023-01-13T05:07:10.379Z,0.40
2023-01-13T05:09:38.023Z,0.40
2023-01-13T05:12:24.621Z,0.60
2023-01-13T05:15:10.566Z,0.70
2023-01-13T05:17:38.485Z,0.65
2023-01-13T05:20:07.446Z,0.65
2023-01-13T05:22:53.428Z,0.40
2023-01-13T05:25:21.718Z,0.65
2023-01-13T05:28:03.773Z,0.40
2023-01-13T05:30:38.037Z,0.50
2023-01-13T05:33:05.847Z,0.50
2023-01-13T05:35:33.366Z,0.90
2023-01-13T05:38:00.913Z,0.68
2023-01-13T05:40:46.800Z,0.75
2023-01-13T05:43:33.415Z,1.35
2023-01-13T05:46:10.185Z,1.05
2023-01-13T05:48:41.137Z,1.20
2023-01-13T05:51:11.360Z,1.50
2023-01-13T05:53:41.046Z,2.38
2023-01-13T05:56:10.198Z,1.40
2023-01-13T05:58:38.279Z,1.55
2023-01-13T06:01:08.921Z,2.40
2023-01-13T06:03:37.744Z,1.52
2023-01-13T06:06:13.313Z,2.13
2023-01-13T06:08:40.927Z,1.85
2023-01-13T06:11:08.853Z,1.65
2023-01-13T06:13:36.457Z,1.75
2023-01-13T06:16:04.261Z,1.42
2023-01-13T06:18:34.497Z,1.45
2023-01-13T06:21:02.032Z,1.88
2023-01-13T06:23:29.891Z,1.40
2023-01-13T06:26:17.981Z,2.08
2023-01-13T06:28:45.498Z,1.60
2023-01-13T06:31:13.053Z,1.65
2023-01-13T06:33:51.380Z,1.52
2023-01-13T06:36:28.410Z,2.10
2023-01-13T06:39:00.039Z,1.65
2023-01-13T06:41:47.849Z,1.60
2023-01-13T06:44:15.549Z,1.65
2023-01-13T06:46:43.190Z,1.33
2023-01-13T06:49:10.870Z,1.20
2023-01-13T06:51:38.412Z,1.10
2023-01-13T06:54:06.176Z,1.20
2023-01-13T06:56:33.854Z,1.25
2023-01-13T06:59:01.308Z,1.08
2023-01-13T07:01:29.055Z,1.63
2023-01-13T07:03:56.632Z,1.10
2023-01-13T07:06:24.703Z,1.20
2023-01-13T07:08:52.382Z,1.60
2023-01-13T07:11:19.919Z,1.52
2023-01-13T07:14:06.180Z,1.00
2023-01-13T07:16:33.889Z,1.27
2023-01-13T07:19:01.618Z,1.27
2023-01-13T07:21:29.435Z,1.35
2023-01-13T07:23:56.946Z,1.23
2023-01-13T07:26:24.481Z,1.58
2023-01-13T07:28:52.049Z,0.90
2023-01-13T07:31:22.620Z,1.17
2023-01-13T07:33:50.212Z,0.93
2023-01-13T07:36:17.994Z,1.15
2023-01-13T07:38:45.567Z,1.50
2023-01-13T07:41:33.028Z,1.23
2023-01-13T07:44:05.005Z,1.40
2023-01-13T07:46:33.887Z,1.50
2023-01-13T07:49:01.305Z,1.42
2023-01-13T07:51:29.015Z,1.27
2023-01-13T07:53:56.637Z,1.10
2023-01-13T07:56:25.143Z,1.63
2023-01-13T07:58:53.558Z,1.13
2023-01-13T08:01:21.502Z,1.77
2023-01-13T08:03:49.120Z,1.02
2023-01-13T08:06:16.904Z,1.20
2023-01-13T08:08:44.586Z,1.45
2023-01-13T08:11:12.510Z,1.38
2023-01-13T08:13:40.438Z,1.00
2023-01-13T08:16:12.676Z,0.80
2023-01-13T08:18:41.209Z,1.10
2023-01-13T08:21:16.313Z,1.20
2023-01-13T08:23:45.897Z,1.80
2023-01-13T08:26:17.431Z,0.93
2023-01-13T08:28:46.287Z,0.93
2023-01-13T08:31:16.787Z,1.15
2023-01-13T08:33:44.565Z,1.35
2023-01-13T08:36:13.140Z,1.23
2023-01-13T08:38:42.993Z,1.00
2023-01-13T08:41:36.621Z,1.20
2023-01-13T08:44:05.406Z,1.38
2023-01-13T08:46:33.146Z,0.95
2023-01-13T08:49:00.729Z,1.38
2023-01-13T08:51:28.545Z,0.90
2023-01-13T08:53:59.176Z,1.50
2023-01-13T08:56:26.704Z,1.20
2023-01-13T08:59:01.511Z,1.20
2023-01-13T09:01:29.317Z,1.10
2023-01-13T09:03:57.342Z,1.17
2023-01-13T09:06:24.959Z,1.20
2023-01-13T09:08:52.337Z,1.38
2023-01-13T09:11:47.551Z,1.40
2023-01-13T09:14:22.398Z,1.50
2023-01-13T09:19:17.315Z,1.20
2023-01-13T09:21:44.967Z,1.50
2023-01-13T09:24:12.356Z,1.52
2023-01-13T09:26:39.928Z,1.33
2023-01-13T09:29:07.498Z,1.35
2023-01-13T09:31:35.168Z,1.90
2023-01-13T09:34:23.819Z,1.83
2023-01-13T09:36:51.495Z,1.45
2023-01-13T09:39:19.237Z,1.42
2023-01-13T09:42:13.505Z,1.65
2023-01-13T09:44:59.761Z,1.40
2023-01-13T09:47:37.857Z,1.60
2023-01-13T09:50:14.290Z,1.77
2023-01-13T09:52:43.438Z,1.70
2023-01-13T09:55:17.999Z,2.17
2023-01-13T09:57:45.409Z,1.70
2023-01-13T10:00:24.933Z,1.48
2023-01-13T10:03:16.543Z,1.88
2023-01-13T10:05:52.317Z,1.60
2023-01-13T10:08:34.087Z,1.48
2023-01-13T10:11:30.560Z,1.35
2023-01-13T10:14:13.681Z,1.10
2023-01-13T10:16:56.194Z,1.48
2023-01-13T10:19:34.032Z,1.45
2023-01-13T10:22:19.791Z,1.50
2023-01-13T10:24:53.068Z,2.67
2023-01-13T10:27:40.338Z,1.33
2023-01-13T10:30:31.557Z,1.63
2023-01-13T10:33:14.888Z,1.35
2023-01-13T10:36:00.430Z,1.55
2023-01-13T10:38:46.960Z,2.33
2023-01-13T10:41:20.348Z,1.70
2023-01-13T10:44:02.489Z,1.60
2023-01-13T10:46:33.456Z,1.45
2023-01-13T10:49:27.629Z,1.70
2023-01-13T10:51:55.067Z,1.60
2023-01-13T10:54:25.491Z,1.63
2023-01-13T10:57:23.544Z,1.63
2023-01-13T10:59:53.321Z,1.52
2023-01-13T11:02:29.902Z,1.60
2023-01-13T11:05:00.848Z,1.63
2023-01-13T11:07:52.729Z,1.20
2023-01-13T11:10:31.588Z,1.23
2023-01-13T11:13:36.365Z,1.40
2023-01-13T11:16:18.486Z,1.30
2023-01-13T11:19:12.022Z,1.30
2023-01-13T11:22:07.579Z,1.83
2023-01-13T11:25:01.415Z,1.30
2023-01-13T11:27:55.827Z,1.50
2023-01-13T11:30:51.121Z,1.20
2023-01-13T11:34:07.657Z,1.30
2023-01-13T11:36:48.289Z,1.40
2023-01-13T11:39:44.101Z,1.40
2023-01-13T11:45:24.146Z,1.27
2023-01-13T11:47:58.940Z,1.60
2023-01-13T11:50:57.591Z,1.50
2023-01-13T11:54:22.653Z,1.80
2023-01-13T11:57:25.634Z,1.55
2023-01-13T12:00:43.004Z,1.70
2023-01-13T12:03:21.480Z,1.73
2023-01-13T12:06:23.651Z,2.00
2023-01-13T12:09:18.760Z,1.60
2023-01-13T12:12:48.290Z,1.70
2023-01-13T12:15:47.703Z,1.40
2023-01-13T12:18:27.119Z,1.58
2023-01-13T12:21:09.599Z,1.48
2023-01-13T12:23:55.763Z,1.65
2023-01-13T12:26:24.363Z,1.92
2023-01-13T12:29:19.084Z,1.90
2023-01-13T12:31:49.546Z,1.58
2023-01-13T12:34:43.979Z,1.45
2023-01-13T12:37:37.618Z,1.67
2023-01-13T12:40:23.895Z,3.80
2023-01-13T12:43:30.096Z,1.50
2023-01-13T12:48:59.873Z,1.60
2023-01-13T12:51:37.585Z,1.90
2023-01-13T12:54:45.109Z,2.30
2023-01-13T12:57:27.395Z,2.10
2023-01-13T13:00:03.608Z,2.47
2023-01-13T13:02:43.814Z,2.30
2023-01-13T13:05:23.443Z,2.78
2023-01-13T13:08:07.388Z,2.45
2023-01-13T13:10:39.517Z,2.10
2023-01-13T13:13:22.361Z,2.22
2023-01-13T13:15:51.817Z,2.08
2023-01-13T13:18:24.087Z,2.85
2023-01-13T13:21:20.826Z,1.90
2023-01-13T13:23:56.960Z,2.28
2023-01-13T13:26:45.937Z,1.90
2023-01-13T13:29:44.702Z,2.58
2023-01-13T13:32:49.868Z,1.73
2023-01-13T13:35:52.062Z,2.40
2023-01-13T13:38:59.186Z,2.58
2023-01-13T13:41:59.859Z,2.45
2023-01-13T13:44:59.863Z,2.10
2023-01-13T13:47:38.920Z,2.42
2023-01-13T13:50:22.216Z,3.05
2023-01-13T13:53:01.034Z,2.25
2023-01-13T13:55:30.851Z,1.95
2023-01-13T13:58:01.768Z,2.83
2023-01-13T14:00:35.791Z,1.70
2023-01-13T14:03:18.762Z,2.15
2023-01-13T14:06:06.781Z,2.10
2023-01-13T14:08:37.840Z,2.22
2023-01-13T14:11:43.977Z,2.15
2023-01-13T14:14:17.421Z,2.70
2023-01-13T14:16:45.167Z,2.72
2023-01-13T14:19:27.484Z,1.52
2023-01-13T14:21:55.425Z,1.77
2023-01-13T14:24:25.100Z,2.17
2023-01-13T14:26:53.463Z,1.95
2023-01-13T14:29:25.395Z,2.20
2023-01-13T14:31:55.089Z,2.40
2023-01-13T14:34:31.926Z,1.77
2023-01-13T14:37:03.115Z,1.60
2023-01-13T14:39:40.265Z,1.60
2023-01-13T14:42:19.651Z,2.22
2023-01-13T14:44:50.436Z,2.17
2023-01-13T14:47:28.280Z,2.13
2023-01-13T14:50:27.789Z,2.10
2023-01-13T14:52:59.232Z,1.98
2023-01-13T14:55:37.481Z,2.25
2023-01-13T14:58:23.560Z,1.90
2023-01-13T15:00:53.504Z,1.95
2023-01-13T15:03:21.887Z,1.80
2023-01-13T15:05:52.783Z,3.40
2023-01-13T15:08:36.145Z,2.75
2023-01-13T15:11:07.534Z,1.70
2023-01-13T15:14:03.633Z,1.85
2023-01-13T15:16:35.030Z,2.10
2023-01-13T15:19:05.748Z,1.50
2023-01-13T15:21:34.519Z,1.73
2023-01-13T15:24:01.906Z,1.95
2023-01-13T15:26:31.119Z,1.73
2023-01-13T15:29:00.939Z,1.70
2023-01-13T15:31:29.535Z,1.88
2023-01-13T15:33:58.965Z,1.88
2023-01-13T15:36:32.593Z,1.90
2023-01-13T15:39:01.355Z,2.20
2023-01-13T15:41:47.578Z,1.55
2023-01-13T15:44:35.056Z,1.90
2023-01-13T15:47:06.849Z,1.95
2023-01-13T15:49:43.594Z,1.70
2023-01-13T15:52:26.885Z,2.08
2023-01-13T15:54:55.680Z,2.33
2023-01-13T15:57:31.047Z,2.30
2023-01-13T16:00:04.198Z,1.77
2023-01-13T16:02:34.531Z,2.10
2023-01-13T16:05:02.026Z,1.98
2023-01-13T16:07:29.596Z,2.13
2023-01-13T16:09:57.214Z,1.33
2023-01-13T16:12:24.713Z,1.75
2023-01-13T16:14:52.319Z,1.92
2023-01-13T16:17:25.392Z,1.85
2023-01-13T16:19:52.900Z,2.20
2023-01-13T16:22:20.646Z,1.73
2023-01-13T16:24:48.624Z,2.45
2023-01-13T16:27:25.537Z,1.75
2023-01-13T16:29:53.474Z,1.90
2023-01-13T16:32:21.281Z,2.38
2023-01-13T16:34:49.729Z,2.40
2023-01-13T16:37:24.762Z,2.20
2023-01-13T16:39:53.816Z,2.10
2023-01-13T16:42:22.164Z,2.00
2023-01-13T16:44:50.913Z,2.15
2023-01-13T16:47:19.417Z,2.08
2023-01-13T16:49:47.688Z,1.75
2023-01-13T16:52:15.311Z,2.38
2023-01-13T16:54:43.157Z,1.80
2023-01-13T16:57:13.911Z,1.80
2023-01-13T16:59:41.580Z,1.95
2023-01-13T17:02:16.437Z,1.60
2023-01-13T17:04:43.986Z,1.85
2023-01-13T17:07:16.779Z,2.08
2023-01-13T17:09:44.549Z,1.80
2023-01-13T17:12:12.248Z,1.55
2023-01-13T17:14:40.255Z,1.63
2023-01-13T17:17:25.636Z,1.88
2023-01-13T17:19:54.016Z,1.45
2023-01-13T17:22:22.265Z,1.50
2023-01-13T17:24:49.630Z,1.70
2023-01-13T17:27:18.847Z,2.22
2023-01-13T17:29:46.515Z,1.10
2023-01-13T17:32:23.284Z,1.60
2023-01-13T17:34:51.327Z,1.77
2023-01-13T17:37:18.956Z,1.58
2023-01-13T17:39:51.190Z,1.58
2023-01-13T17:42:18.758Z,1.52
2023-01-13T17:44:48.112Z,1.23
2023-01-13T17:47:15.679Z,1.30
2023-01-13T17:49:43.068Z,1.70
2023-01-13T17:52:10.638Z,1.55
2023-01-13T17:54:40.061Z,1.70
2023-01-13T17:57:07.452Z,2.20
2023-01-13T17:59:34.902Z,2.80
2023-01-13T18:02:02.325Z,1.48
2023-01-13T18:04:31.029Z,1.60
2023-01-13T18:06:58.709Z,2.38
2023-01-13T18:09:26.934Z,2.00
2023-01-13T18:11:57.213Z,2.78
2023-01-13T18:14:24.845Z,2.10
2023-01-13T18:16:52.904Z,2.05
2023-01-13T18:19:39.131Z,1.80
2023-01-13T18:22:24.844Z,2.40
2023-01-13T18:25:11.221Z,1.83
2023-01-13T18:27:41.672Z,3.45
2023-01-13T18:30:10.835Z,1.98
2023-01-13T18:32:38.651Z,1.58
2023-01-13T18:35:10.674Z,1.63
2023-01-13T18:37:40.779Z,1.98
2023-01-13T18:40:11.652Z,1.33
2023-01-13T18:42:51.912Z,1.88
2023-01-13T18:45:33.144Z,1.92
2023-01-13T18:48:03.119Z,1.80
2023-01-13T18:50:31.868Z,2.15
2023-01-13T18:52:59.353Z,1.83
2023-01-13T18:55:28.860Z,1.65
2023-01-13T18:57:57.394Z,2.10
2023-01-13T19:00:27.018Z,2.20
2023-01-13T19:05:35.649Z,1.75
2023-01-13T19:08:04.473Z,2.00
2023-01-13T19:10:32.860Z,1.65
2023-01-13T19:13:01.811Z,1.60
2023-01-13T19:15:30.365Z,1.55
2023-01-13T19:17:58.084Z,2.08
2023-01-13T19:20:25.627Z,1.67
2023-01-13T19:22:54.666Z,1.55
2023-01-13T19:25:22.636Z,1.42
2023-01-13T19:27:50.088Z,1.92
2023-01-13T19:30:18.025Z,1.77
2023-01-13T19:32:45.572Z,1.23
2023-01-13T19:35:17.421Z,1.70
2023-01-13T19:37:45.063Z,1.48
2023-01-13T19:40:14.018Z,1.27
2023-01-13T19:43:02.774Z,1.00
2023-01-13T19:45:32.276Z,1.45
2023-01-13T19:48:05.702Z,2.28
2023-01-13T19:50:40.559Z,1.52
2023-01-13T19:53:10.706Z,1.48
2023-01-13T19:55:38.159Z,1.42
2023-01-13T19:58:05.779Z,1.60
2023-01-13T20:00:35.587Z,1.42
2023-01-13T20:03:05.006Z,2.35
2023-01-13T20:05:32.592Z,1.75
2023-01-13T20:08:00.044Z,1.95
2023-01-13T20:10:30.754Z,2.30
2023-01-13T20:12:58.658Z,1.40
2023-01-13T20:15:26.072Z,1.35
2023-01-13T20:17:55.613Z,1.65
2023-01-13T20:20:27.101Z,1.75
2023-01-13T20:22:54.544Z,1.50
2023-01-13T20:25:21.970Z,1.73
2023-01-13T20:27:49.966Z,1.35
2023-01-13T20:30:17.869Z,1.70
2023-01-13T20:32:45.422Z,1.75
2023-01-13T20:35:13.067Z,1.42
2023-01-13T20:37:42.615Z,1.80
2023-01-13T20:40:15.161Z,1.77
2023-01-13T20:42:45.400Z,1.60
2023-01-13T20:45:20.069Z,2.03
2023-01-13T20:47:47.967Z,1.80
2023-01-13T20:50:16.987Z,1.42
2023-01-13T20:52:45.059Z,1.33
2023-01-13T20:55:15.652Z,1.30
2023-01-13T20:57:43.257Z,1.23
2023-01-13T21:00:11.472Z,1.77
2023-01-13T21:02:40.948Z,1.58
2023-01-13T21:05:09.850Z,1.92
2023-01-13T21:07:37.309Z,1.67
2023-01-13T21:10:06.066Z,1.67
2023-01-13T21:12:52.230Z,1.50
2023-01-13T21:15:22.951Z,1.45
2023-01-13T21:18:10.317Z,1.23
2023-01-13T21:20:39.477Z,1.67
2023-01-13T21:23:07.770Z,2.05
2023-01-13T21:25:37.378Z,1.95
2023-01-13T21:28:09.827Z,1.45
2023-01-13T21:30:39.219Z,2.00
2023-01-13T21:33:14.022Z,1.30
2023-01-13T21:35:42.574Z,1.42
2023-01-13T21:38:14.440Z,1.80
2023-01-13T21:40:41.914Z,2.15
2023-01-13T21:43:31.601Z,4.53
2023-01-13T21:46:17.431Z,9.65
2023-01-13T21:48:44.766Z,12.43
2023-01-13T21:51:12.211Z,11.43
2023-01-13T21:53:39.609Z,12.93
2023-01-13T21:56:07.693Z,12.93
2023-01-13T21:58:35.198Z,10.23
2023-01-13T22:01:03.184Z,12.18
2023-01-13T22:03:50.872Z,10.88
2023-01-13T22:06:18.509Z,11.15
2023-01-13T22:08:46.094Z,9.13
2023-01-13T22:11:13.858Z,10.50
2023-01-13T22:13:59.847Z,9.05
2023-01-13T22:16:27.754Z,7.40
2023-01-13T22:18:55.503Z,8.40
2023-01-13T22:21:22.908Z,7.35
2023-01-13T22:23:50.634Z,7.45
2023-01-13T22:26:20.480Z,6.10
2023-01-13T22:28:48.012Z,6.18
2023-01-13T22:31:23.789Z,6.57
2023-01-13T22:33:56.337Z,5.90
2023-01-13T22:36:24.796Z,5.53
2023-01-13T22:39:00.646Z,5.13
2023-01-13T22:41:30.898Z,4.38
2023-01-13T22:43:58.605Z,4.43
2023-01-13T22:46:26.325Z,3.90
2023-01-13T22:48:55.960Z,4.22
2023-01-13T22:51:23.832Z,3.40
2023-01-13T22:53:51.403Z,3.15
2023-01-13T22:56:26.349Z,3.00
2023-01-13T23:01:28.357Z,2.70
2023-01-13T23:03:56.621Z,2.72
2023-01-13T23:06:26.989Z,2.72
2023-01-13T23:08:56.774Z,2.45
2023-01-13T23:11:28.804Z,2.53
2023-01-13T23:14:05.811Z,2.42
2023-01-13T23:16:38.432Z,2.60
2023-01-13T23:19:07.581Z,3.25
2023-01-13T23:21:37.647Z,2.38
2023-01-13T23:24:06.821Z,2.35
2023-01-13T23:26:37.117Z,2.03
2023-01-13T23:29:08.444Z,2.35
2023-01-13T23:31:36.214Z,1.83
2023-01-13T23:34:03.833Z,2.15
2023-01-13T23:36:31.694Z,2.00
2023-01-13T23:38:59.937Z,2.85
2023-01-13T23:41:29.314Z,3.28
2023-01-13T23:44:00.206Z,3.97
2023-01-13T23:46:30.540Z,4.88
2023-01-13T23:48:58.445Z,6.07
2023-01-13T23:51:27.713Z,6.00
2023-01-13T23:53:55.288Z,6.68
2023-01-13T23:56:29.634Z,6.80
2023-01-13T23:58:57.768Z,8.23
